createdAt,value
2019-03-27T00:01:16.388Z,5.13
2019-03-27T00:03:47.694Z,5.18
2019-03-27T00:06:19.042Z,5.09
2019-03-27T00:08:50.107Z,5.07
2019-03-27T00:11:21.267Z,5.18
2019-03-27T00:13:52.563Z,5.16
2019-03-27T00:16:23.656Z,5.12
2019-03-27T00:18:54.781Z,5.09
2019-03-27T00:21:27.792Z,5.06
2019-03-27T00:23:58.933Z,4.94
2019-03-27T00:26:30.533Z,4.87
2019-03-27T00:29:01.699Z,5.01
2019-03-27T00:31:32.902Z,5.05
2019-03-27T00:34:04.095Z,5.07
2019-03-27T00:36:37.805Z,5.22
2019-03-27T00:39:09.036Z,5.06
2019-03-27T00:41:40.194Z,5.17
2019-03-27T00:44:11.232Z,4.79
2019-03-27T00:46:43.798Z,4.81
2019-03-27T00:49:15.822Z,4.74
2019-03-27T00:51:46.927Z,4.71
2019-03-27T00:54:18.143Z,4.68
2019-03-27T00:56:49.532Z,4.77
2019-03-27T00:59:22.340Z,4.74
2019-03-27T01:01:53.439Z,4.70
2019-03-27T01:04:33.347Z,4.75
2019-03-27T01:07:03.797Z,4.74
2019-03-27T01:09:36.835Z,4.79
2019-03-27T01:12:08.072Z,4.65
2019-03-27T01:14:39.266Z,4.70
2019-03-27T01:17:10.529Z,4.53
2019-03-27T01:19:41.757Z,4.74
2019-03-27T01:22:12.932Z,4.85
2019-03-27T01:24:44.461Z,4.57
2019-03-27T01:27:15.703Z,4.80
2019-03-27T01:29:46.881Z,4.82
2019-03-27T01:32:18.231Z,4.90
2019-03-27T01:34:49.458Z,5.01
2019-03-27T01:37:20.827Z,5.03
2019-03-27T01:39:52.315Z,5.03
2019-03-27T01:42:23.524Z,5.15
2019-03-27T01:44:54.583Z,5.06
2019-03-27T01:47:25.707Z,5.07
2019-03-27T01:49:56.942Z,5.15
2019-03-27T01:52:28.101Z,5.06
2019-03-27T01:54:59.254Z,5.00
2019-03-27T01:57:30.450Z,4.74
2019-03-27T02:00:01.521Z,4.84
2019-03-27T02:02:34.424Z,4.90
2019-03-27T02:05:10.494Z,4.93
2019-03-27T02:07:41.606Z,5.07
2019-03-27T02:10:13.792Z,5.01
2019-03-27T02:12:45.038Z,4.93
2019-03-27T02:15:16.199Z,5.00
2019-03-27T02:17:47.290Z,4.95
2019-03-27T02:20:18.488Z,5.04
2019-03-27T02:22:49.739Z,4.94
2019-03-27T02:25:22.065Z,4.98
2019-03-27T02:27:53.313Z,5.02
2019-03-27T02:30:24.567Z,4.81
2019-03-27T02:32:55.632Z,4.91
2019-03-27T02:35:26.693Z,4.79
2019-03-27T02:37:57.703Z,4.69
2019-03-27T02:40:28.855Z,4.40
2019-03-27T02:43:00.089Z,4.52
2019-03-27T02:45:31.363Z,4.56
2019-03-27T02:48:02.568Z,4.59
2019-03-27T02:50:33.741Z,4.50
2019-03-27T02:53:04.934Z,4.44
2019-03-27T02:55:36.146Z,4.27
2019-03-27T02:58:07.577Z,4.39
2019-03-27T03:00:38.823Z,4.42
2019-03-27T03:03:10.008Z,4.50
2019-03-27T03:05:41.078Z,4.55
2019-03-27T03:08:12.159Z,4.52
2019-03-27T03:10:45.950Z,4.60
2019-03-27T03:13:16.374Z,4.63
2019-03-27T03:15:47.456Z,4.59
2019-03-27T03:18:18.589Z,4.66
2019-03-27T03:20:49.650Z,4.63
2019-03-27T03:23:20.656Z,4.63
2019-03-27T03:25:51.948Z,4.70
2019-03-27T03:28:23.071Z,4.68
2019-03-27T03:30:55.182Z,4.68
2019-03-27T03:33:26.418Z,4.75
2019-03-27T03:35:57.594Z,4.66
2019-03-27T03:38:28.659Z,4.74
2019-03-27T03:40:59.790Z,4.78
2019-03-27T03:43:30.950Z,4.85
2019-03-27T03:46:02.121Z,4.88
2019-03-27T03:48:35.656Z,4.86
2019-03-27T03:51:06.818Z,4.82
2019-03-27T03:53:38.126Z,4.85
2019-03-27T03:56:11.237Z,5.01
2019-03-27T03:58:42.418Z,4.92
2019-03-27T04:01:13.596Z,4.87
2019-03-27T04:03:44.914Z,4.82
2019-03-27T04:06:16.157Z,4.84
2019-03-27T04:08:47.172Z,4.89
2019-03-27T04:11:18.297Z,4.88
2019-03-27T04:13:49.621Z,4.89
2019-03-27T04:16:21.051Z,4.90
2019-03-27T04:18:52.202Z,5.02
2019-03-27T04:21:26.780Z,5.02
2019-03-27T04:23:56.170Z,5.06
2019-03-27T04:26:33.244Z,4.93
2019-03-27T04:29:01.783Z,5.00
2019-03-27T04:31:33.003Z,5.02
2019-03-27T04:34:04.085Z,5.07
2019-03-27T04:36:35.431Z,5.09
2019-03-27T04:39:06.494Z,4.96
2019-03-27T04:41:37.640Z,4.88
2019-03-27T04:44:08.668Z,4.94
2019-03-27T04:46:39.783Z,5.02
2019-03-27T04:49:10.804Z,5.12
2019-03-27T04:51:41.787Z,5.21
2019-03-27T04:54:13.031Z,5.07
2019-03-27T04:56:53.328Z,5.10
2019-03-27T04:59:24.363Z,5.07
2019-03-27T05:01:55.664Z,5.06
2019-03-27T05:04:27.418Z,5.07
2019-03-27T05:06:58.581Z,5.03
2019-03-27T05:09:29.747Z,5.25
2019-03-27T05:12:01.919Z,5.04
2019-03-27T05:14:32.950Z,5.08
2019-03-27T05:17:05.210Z,5.07
2019-03-27T05:19:36.376Z,4.98
2019-03-27T05:22:07.413Z,5.05
2019-03-27T05:24:38.428Z,5.06
2019-03-27T05:27:09.418Z,5.13
2019-03-27T05:29:40.835Z,5.27
2019-03-27T05:32:12.066Z,5.34
2019-03-27T05:34:43.265Z,5.40
2019-03-27T05:37:14.466Z,5.28
2019-03-27T05:39:45.564Z,5.29
2019-03-27T05:42:18.203Z,5.27
2019-03-27T05:44:49.251Z,5.20
2019-03-27T05:47:20.484Z,5.20
2019-03-27T05:49:51.724Z,5.16
2019-03-27T05:52:22.979Z,5.27
2019-03-27T05:54:54.078Z,5.33
2019-03-27T05:57:25.151Z,5.24
2019-03-27T05:59:56.551Z,5.38
2019-03-27T06:02:27.615Z,5.28
2019-03-27T06:04:59.002Z,5.38
2019-03-27T06:07:30.134Z,5.45
2019-03-27T06:10:01.230Z,5.29
2019-03-27T06:12:32.449Z,5.18
2019-03-27T06:15:06.583Z,5.10
2019-03-27T06:17:39.361Z,5.24
2019-03-27T06:20:10.555Z,5.20
2019-03-27T06:22:41.659Z,5.21
2019-03-27T06:25:12.858Z,5.26
2019-03-27T06:27:44.015Z,5.46
2019-03-27T06:30:17.996Z,5.58
2019-03-27T06:32:49.091Z,5.69
2019-03-27T06:35:20.438Z,5.73
2019-03-27T06:37:51.624Z,5.84
2019-03-27T06:40:22.912Z,5.67
2019-03-27T06:42:54.041Z,5.63
2019-03-27T06:45:25.214Z,5.71
2019-03-27T06:47:56.555Z,5.87
2019-03-27T06:50:27.637Z,6.04
2019-03-27T06:52:58.656Z,6.28
2019-03-27T06:55:29.690Z,6.52
2019-03-27T06:58:01.113Z,6.67
2019-03-27T07:00:36.664Z,6.64
2019-03-27T07:03:08.150Z,6.50
2019-03-27T07:05:39.381Z,6.52
2019-03-27T07:08:10.460Z,6.56
2019-03-27T07:10:42.466Z,6.61
2019-03-27T07:13:13.616Z,6.69
2019-03-27T07:15:44.819Z,6.90
2019-03-27T07:18:16.150Z,7.22
2019-03-27T07:20:47.365Z,7.58
2019-03-27T07:23:18.483Z,7.72
2019-03-27T07:25:49.675Z,7.87
2019-03-27T07:28:21.009Z,8.02
2019-03-27T07:30:52.000Z,7.94
2019-03-27T07:33:23.071Z,7.87
2019-03-27T07:35:55.269Z,7.82
2019-03-27T07:38:27.966Z,7.85
2019-03-27T07:40:58.978Z,7.76
2019-03-27T07:43:29.993Z,7.82
2019-03-27T07:46:01.158Z,7.83
2019-03-27T07:48:32.475Z,8.05
2019-03-27T07:51:03.428Z,8.00
2019-03-27T07:53:34.502Z,7.76
2019-03-27T07:56:06.822Z,7.65
2019-03-27T07:58:37.974Z,7.48
2019-03-27T08:01:11.015Z,7.62
2019-03-27T08:03:42.119Z,7.74
2019-03-27T08:06:13.226Z,7.80
2019-03-27T08:08:44.201Z,7.74
2019-03-27T08:11:15.283Z,7.80
2019-03-27T08:13:46.217Z,7.99
2019-03-27T08:16:17.509Z,7.89
2019-03-27T08:18:48.460Z,7.78
2019-03-27T08:21:23.267Z,7.85
2019-03-27T08:23:54.342Z,7.84
2019-03-27T08:26:25.729Z,7.87
2019-03-27T08:28:57.325Z,7.89
2019-03-27T08:31:28.419Z,7.82
2019-03-27T08:33:59.540Z,7.84
2019-03-27T08:36:30.977Z,7.98
2019-03-27T08:39:03.415Z,7.80
2019-03-27T08:41:35.867Z,7.92
2019-03-27T08:44:09.921Z,7.88
2019-03-27T08:46:41.025Z,7.87
2019-03-27T08:49:21.778Z,7.85
2019-03-27T08:51:44.832Z,7.94
2019-03-27T08:54:16.163Z,7.88
2019-03-27T08:56:47.287Z,7.93
2019-03-27T08:59:18.435Z,8.02
2019-03-27T09:01:49.659Z,8.10
2019-03-27T09:04:20.730Z,8.18
2019-03-27T09:06:51.653Z,8.09
2019-03-27T09:09:23.075Z,8.30
2019-03-27T09:11:54.075Z,8.43
2019-03-27T09:14:25.251Z,8.45
2019-03-27T09:16:56.285Z,8.22
2019-03-27T09:19:35.548Z,8.40
2019-03-27T09:22:02.746Z,8.10
2019-03-27T09:24:33.804Z,8.02
2019-03-27T09:27:04.760Z,7.99
2019-03-27T09:29:35.775Z,7.79
2019-03-27T09:32:06.824Z,7.86
2019-03-27T09:34:37.970Z,8.01
2019-03-27T09:37:09.092Z,8.33
2019-03-27T09:39:40.200Z,8.57
2019-03-27T09:42:11.201Z,8.70
2019-03-27T09:44:42.253Z,8.54
2019-03-27T09:47:13.477Z,8.52
2019-03-27T09:49:49.823Z,8.72
2019-03-27T09:52:17.620Z,9.00
2019-03-27T09:54:48.950Z,9.15
2019-03-27T09:57:20.318Z,9.46
2019-03-27T09:59:54.098Z,9.89
2019-03-27T10:02:25.022Z,10.05
2019-03-27T10:04:56.208Z,9.81
2019-03-27T10:07:27.170Z,9.68
2019-03-27T10:09:58.489Z,9.45
2019-03-27T10:12:29.784Z,9.13
2019-03-27T10:15:00.785Z,9.12
2019-03-27T10:17:31.808Z,8.96
2019-03-27T10:20:04.065Z,9.08
2019-03-27T10:22:37.234Z,9.16
2019-03-27T10:25:08.487Z,9.34
2019-03-27T10:27:43.129Z,9.43
2019-03-27T10:30:15.481Z,9.43
2019-03-27T10:32:46.317Z,9.46
2019-03-27T10:35:17.402Z,9.44
2019-03-27T10:37:48.417Z,9.36
2019-03-27T10:40:19.493Z,9.19
2019-03-27T10:42:50.493Z,9.03
2019-03-27T10:45:21.765Z,8.76
2019-03-27T10:47:52.886Z,8.78
2019-03-27T10:50:24.052Z,8.87
2019-03-27T10:52:55.265Z,8.87
2019-03-27T10:55:29.326Z,8.87
2019-03-27T10:58:00.549Z,8.91
2019-03-27T11:00:32.456Z,9.08
2019-03-27T11:03:03.616Z,9.09
2019-03-27T11:05:38.352Z,9.03
2019-03-27T11:08:11.738Z,8.97
2019-03-27T11:10:44.976Z,8.99
2019-03-27T11:13:18.158Z,9.03
2019-03-27T11:15:49.611Z,9.13
2019-03-27T11:18:21.989Z,9.15
2019-03-27T11:20:53.295Z,8.92
2019-03-27T11:23:25.283Z,9.03
2019-03-27T11:25:56.359Z,9.10
2019-03-27T11:28:27.344Z,8.99
2019-03-27T11:30:58.354Z,9.08
2019-03-27T11:33:29.568Z,8.94
2019-03-27T11:36:00.625Z,8.90
2019-03-27T11:38:31.744Z,8.80
2019-03-27T11:41:04.716Z,8.88
2019-03-27T11:43:35.747Z,8.90
2019-03-27T11:46:06.882Z,9.01
2019-03-27T11:48:37.923Z,9.02
2019-03-27T11:51:09.105Z,8.83
2019-03-27T11:53:40.393Z,8.94
2019-03-27T11:56:11.591Z,8.95
2019-03-27T11:58:42.860Z,8.84
2019-03-27T12:01:13.942Z,8.82
2019-03-27T12:03:45.050Z,8.57
2019-03-27T12:06:17.840Z,8.54
2019-03-27T12:08:50.985Z,8.48
2019-03-27T12:11:22.315Z,8.53
2019-03-27T12:13:53.436Z,8.43
2019-03-27T12:16:24.665Z,8.31
2019-03-27T12:18:55.740Z,8.29
2019-03-27T12:21:26.736Z,8.10
2019-03-27T12:23:57.922Z,8.19
2019-03-27T12:26:29.145Z,8.10
2019-03-27T12:29:00.209Z,8.25
2019-03-27T12:31:31.363Z,8.00
2019-03-27T12:34:02.537Z,7.72
2019-03-27T12:36:33.747Z,7.39
2019-03-27T12:39:06.667Z,6.97
2019-03-27T12:41:38.731Z,6.80
2019-03-27T12:44:09.928Z,6.76
2019-03-27T12:46:42.342Z,6.28
2019-03-27T12:49:13.459Z,6.02
2019-03-27T12:51:44.634Z,5.82
2019-03-27T12:54:15.714Z,5.77
2019-03-27T12:56:46.823Z,5.69
2019-03-27T12:59:17.772Z,5.55
2019-03-27T13:01:52.500Z,5.42
2019-03-27T13:04:23.748Z,5.21
2019-03-27T13:06:55.060Z,5.17
2019-03-27T13:09:26.146Z,5.23
2019-03-27T13:11:58.220Z,5.20
2019-03-27T13:14:29.385Z,5.09
2019-03-27T13:17:00.515Z,5.04
2019-03-27T13:19:31.714Z,4.94
2019-03-27T13:22:02.810Z,4.74
2019-03-27T13:24:33.938Z,4.62
2019-03-27T13:27:05.604Z,4.52
2019-03-27T13:29:36.648Z,4.34
2019-03-27T13:32:07.786Z,4.16
2019-03-27T13:34:38.792Z,3.96
2019-03-27T13:37:09.921Z,3.90
2019-03-27T13:39:41.166Z,3.86
2019-03-27T13:42:13.198Z,3.86
2019-03-27T13:44:44.437Z,3.86
2019-03-27T13:47:15.547Z,3.73
2019-03-27T13:49:46.790Z,3.79
2019-03-27T13:52:17.929Z,3.86
2019-03-27T13:54:49.156Z,3.78
2019-03-27T13:57:20.245Z,3.80
2019-03-27T13:59:51.457Z,3.71
2019-03-27T14:02:22.460Z,3.68
2019-03-27T14:04:53.683Z,3.78
2019-03-27T14:07:27.582Z,3.75
2019-03-27T14:09:58.738Z,3.73
2019-03-27T14:12:30.113Z,3.78
2019-03-27T14:15:01.801Z,3.70
2019-03-27T14:17:33.556Z,3.65
2019-03-27T14:20:06.625Z,3.67
2019-03-27T14:22:38.738Z,3.42
2019-03-27T14:25:09.912Z,3.49
2019-03-27T14:27:41.288Z,3.52
2019-03-27T14:30:17.002Z,3.45
2019-03-27T14:32:50.380Z,3.28
2019-03-27T14:35:21.444Z,3.27
2019-03-27T14:37:52.433Z,3.28
2019-03-27T14:40:23.586Z,3.32
2019-03-27T14:42:56.773Z,3.33
2019-03-27T14:45:28.127Z,3.31
2019-03-27T14:48:01.090Z,3.02
2019-03-27T14:50:32.209Z,2.84
2019-03-27T14:53:04.256Z,2.74
2019-03-27T14:55:35.487Z,2.78
2019-03-27T14:58:06.810Z,2.63
2019-03-27T15:00:39.520Z,2.66
2019-03-27T15:03:10.647Z,2.47
2019-03-27T15:05:41.809Z,2.33
2019-03-27T15:08:13.061Z,2.27
2019-03-27T15:10:44.077Z,2.23
2019-03-27T15:13:25.547Z,2.04
2019-03-27T15:15:56.871Z,1.86
2019-03-27T15:18:28.072Z,1.64
2019-03-27T15:20:59.238Z,1.71
2019-03-27T15:23:30.465Z,1.58
2019-03-27T15:26:01.652Z,1.61
2019-03-27T15:28:32.856Z,1.63
2019-03-27T15:31:03.999Z,1.58
2019-03-27T15:33:35.081Z,1.46
2019-03-27T15:36:06.082Z,1.43
2019-03-27T15:38:37.283Z,1.34
2019-03-27T15:41:08.445Z,1.22
2019-03-27T15:43:39.598Z,1.08
2019-03-27T15:46:10.771Z,1.03
2019-03-27T15:48:41.822Z,0.97
2019-03-27T15:51:12.864Z,0.87
2019-03-27T15:53:47.319Z,0.80
2019-03-27T15:56:18.307Z,0.70
2019-03-27T15:58:49.300Z,0.80
2019-03-27T16:01:20.305Z,0.71
2019-03-27T16:03:51.467Z,0.84
2019-03-27T16:06:22.497Z,0.81
2019-03-27T16:08:53.627Z,0.81
2019-03-27T16:11:25.731Z,0.75
2019-03-27T16:13:56.957Z,0.71
2019-03-27T16:16:28.003Z,0.64
2019-03-27T16:18:59.189Z,0.54
2019-03-27T16:21:30.357Z,0.50
2019-03-27T16:24:06.542Z,0.53
2019-03-27T16:26:34.321Z,0.57
2019-03-27T16:29:05.442Z,0.65
2019-03-27T16:31:36.575Z,0.61
2019-03-27T16:34:07.657Z,0.66
2019-03-27T16:36:38.699Z,0.52
2019-03-27T16:39:09.933Z,0.52
2019-03-27T16:41:41.014Z,0.51
2019-03-27T16:44:12.054Z,0.54
2019-03-27T16:46:43.195Z,0.49
2019-03-27T16:49:14.409Z,0.53
2019-03-27T16:51:45.574Z,0.51
2019-03-27T16:54:16.769Z,0.59
2019-03-27T16:56:47.828Z,0.44
2019-03-27T16:59:18.857Z,0.38
2019-03-27T17:01:49.957Z,0.35
2019-03-27T17:04:21.422Z,0.38
2019-03-27T17:06:52.776Z,0.37
2019-03-27T17:09:23.784Z,0.34
2019-03-27T17:11:54.819Z,0.37
2019-03-27T17:14:25.897Z,0.43
2019-03-27T17:16:56.964Z,0.38
2019-03-27T17:19:28.213Z,0.34
2019-03-27T17:21:59.290Z,0.35
2019-03-27T17:24:30.534Z,0.35
2019-03-27T17:27:01.931Z,0.33
2019-03-27T17:29:33.202Z,0.38
2019-03-27T17:32:04.580Z,0.37
2019-03-27T17:34:35.765Z,0.32
2019-03-27T17:37:09.050Z,0.38
2019-03-27T17:39:40.434Z,0.40
2019-03-27T17:42:11.830Z,0.40
2019-03-27T17:44:42.953Z,0.35
2019-03-27T17:47:14.092Z,0.41
2019-03-27T17:49:45.594Z,0.45
2019-03-27T17:52:16.728Z,0.45
2019-03-27T17:54:47.807Z,0.42
2019-03-27T17:57:18.895Z,0.45
2019-03-27T17:59:50.156Z,0.41
2019-03-27T18:02:21.271Z,0.40
2019-03-27T18:04:52.459Z,0.45
2019-03-27T18:07:23.990Z,0.51
2019-03-27T18:09:55.038Z,0.50
2019-03-27T18:12:28.782Z,0.53
2019-03-27T18:15:00.151Z,0.57
2019-03-27T18:17:31.379Z,0.51
2019-03-27T18:20:02.533Z,0.51
2019-03-27T18:22:33.824Z,0.44
2019-03-27T18:25:06.316Z,0.50
2019-03-27T18:27:37.396Z,0.46
2019-03-27T18:30:08.523Z,0.51
2019-03-27T18:32:39.811Z,0.59
2019-03-27T18:35:11.195Z,0.57
2019-03-27T18:37:42.363Z,0.58
2019-03-27T18:40:13.459Z,0.59
2019-03-27T18:42:44.649Z,0.59
2019-03-27T18:45:15.768Z,0.58
2019-03-27T18:47:47.082Z,0.57
2019-03-27T18:50:18.290Z,0.63
2019-03-27T18:52:49.406Z,0.76
2019-03-27T18:55:26.472Z,0.79
2019-03-27T18:57:59.972Z,0.82
2019-03-27T19:00:26.778Z,0.83
2019-03-27T19:02:58.180Z,0.89
2019-03-27T19:05:30.265Z,0.85
2019-03-27T19:08:01.308Z,0.82
2019-03-27T19:10:32.467Z,0.88
2019-03-27T19:13:03.491Z,0.94
2019-03-27T19:15:35.736Z,0.85
2019-03-27T19:18:06.778Z,0.88
2019-03-27T19:20:37.863Z,0.91
2019-03-27T19:23:08.885Z,0.93
2019-03-27T19:25:43.032Z,0.95
2019-03-27T19:28:14.141Z,0.95
2019-03-27T19:30:45.452Z,1.03
2019-03-27T19:33:17.757Z,1.01
2019-03-27T19:35:49.042Z,0.98
2019-03-27T19:38:20.199Z,1.01
2019-03-27T19:40:52.392Z,1.09
2019-03-27T19:43:23.565Z,1.13
2019-03-27T19:45:57.384Z,1.13
2019-03-27T19:48:27.590Z,1.24
2019-03-27T19:50:58.712Z,1.21
2019-03-27T19:53:29.900Z,1.28
2019-03-27T19:56:01.171Z,1.26
2019-03-27T19:58:33.508Z,1.26
2019-03-27T20:01:05.619Z,1.25
2019-03-27T20:03:38.040Z,1.28
2019-03-27T20:06:09.348Z,1.23
2019-03-27T20:08:40.545Z,1.25
2019-03-27T20:11:11.876Z,1.27
2019-03-27T20:13:43.022Z,1.32
2019-03-27T20:16:14.227Z,1.32
2019-03-27T20:18:45.340Z,1.27
2019-03-27T20:21:16.384Z,1.29
2019-03-27T20:23:47.520Z,1.26
2019-03-27T20:26:18.703Z,1.35
2019-03-27T20:28:49.856Z,1.34
2019-03-27T20:31:21.152Z,1.42
2019-03-27T20:33:52.255Z,1.44
2019-03-27T20:36:27.895Z,1.49
2019-03-27T20:38:59.479Z,1.49
2019-03-27T20:41:30.535Z,1.48
2019-03-27T20:44:01.951Z,1.46
2019-03-27T20:46:33.188Z,1.45
2019-03-27T20:49:04.449Z,1.39
2019-03-27T20:51:36.164Z,1.39
2019-03-27T20:54:07.263Z,1.38
2019-03-27T20:56:39.496Z,1.36
2019-03-27T20:59:18.154Z,1.33
2019-03-27T21:01:47.895Z,1.35
2019-03-27T21:04:20.824Z,1.38
2019-03-27T21:06:52.251Z,1.42
2019-03-27T21:09:23.450Z,1.40
2019-03-27T21:11:56.142Z,1.46
2019-03-27T21:14:27.607Z,1.49
2019-03-27T21:16:58.724Z,1.50
2019-03-27T21:19:29.753Z,1.48
2019-03-27T21:22:00.996Z,1.58
2019-03-27T21:24:32.092Z,1.68
2019-03-27T21:27:03.130Z,1.73
2019-03-27T21:29:34.301Z,1.70
2019-03-27T21:32:05.405Z,1.67
2019-03-27T21:34:36.468Z,1.60
2019-03-27T21:37:08.467Z,1.59
2019-03-27T21:39:39.489Z,1.57
2019-03-27T21:42:11.686Z,1.60
2019-03-27T21:44:45.092Z,1.64
2019-03-27T21:47:16.317Z,1.61
2019-03-27T21:49:47.360Z,1.61
2019-03-27T21:52:18.561Z,1.53
2019-03-27T21:54:49.929Z,1.49
2019-03-27T21:57:21.041Z,1.52
2019-03-27T21:59:53.378Z,1.47
2019-03-27T22:02:25.856Z,1.49
2019-03-27T22:04:57.946Z,1.54
2019-03-27T22:07:29.048Z,1.47
2019-03-27T22:10:00.398Z,1.45
2019-03-27T22:12:31.645Z,1.50
2019-03-27T22:15:02.688Z,1.44
2019-03-27T22:17:33.930Z,1.46
2019-03-27T22:20:06.877Z,1.51
2019-03-27T22:22:38.218Z,1.46
2019-03-27T22:25:10.398Z,1.40
2019-03-27T22:27:41.436Z,1.41
2019-03-27T22:30:12.821Z,1.38
2019-03-27T22:32:43.980Z,1.42
2019-03-27T22:35:15.074Z,1.36
2019-03-27T22:37:46.258Z,1.22
2019-03-27T22:40:17.434Z,1.20
2019-03-27T22:42:48.725Z,1.19
2019-03-27T22:45:20.916Z,1.25
2019-03-27T22:47:52.000Z,1.19
2019-03-27T22:50:23.235Z,1.16
2019-03-27T22:52:54.382Z,1.12
2019-03-27T22:55:25.471Z,1.11
2019-03-27T22:57:56.573Z,1.09
2019-03-27T23:00:45.307Z,1.13
2019-03-27T23:03:18.606Z,1.15
2019-03-27T23:05:49.926Z,1.13
2019-03-27T23:08:22.066Z,1.14
2019-03-27T23:10:53.406Z,1.08
2019-03-27T23:13:24.512Z,1.06
2019-03-27T23:15:55.597Z,1.04
2019-03-27T23:18:30.507Z,1.04
2019-03-27T23:21:01.557Z,1.02
2019-03-27T23:23:32.606Z,0.96
2019-03-27T23:26:04.024Z,0.95
2019-03-27T23:28:35.138Z,0.99
2019-03-27T23:31:06.134Z,0.97
2019-03-27T23:33:37.272Z,0.98
2019-03-27T23:36:08.380Z,1.01
2019-03-27T23:38:39.697Z,1.00
2019-03-27T23:41:10.893Z,0.97
2019-03-27T23:43:43.087Z,0.91
2019-03-27T23:46:14.301Z,0.88
2019-03-27T23:48:49.906Z,0.81
2019-03-27T23:51:20.890Z,0.77
2019-03-27T23:53:51.932Z,0.76
2019-03-27T23:56:23.167Z,0.78
2019-03-27T23:59:00.286Z,0.85
